Time;durP1;ratioP1;P1;durP2;ratioP2;P2;SDS_P1;SDS_P2;PMS_P1;PMS_P2;Temp;Humidity;BMP_temperature;BMP_pressure;BME280_temperature;BME280_humidity;BME280_pressure;Samples;Min_cycle;Max_cycle;Signal;HPM_P1;HPM_P2
2024/04/21 00:02:03;;;;;;;;;;;18.00;69.90;;;;;;5364857;26;1420;-71
2024/04/21 00:04:29;;;;;;;;;;;18.00;69.90;;;;;;5374193;26;1837;-71
2024/04/21 00:06:54;;;;;;;;;;;18.00;69.90;;;;;;5394200;26;1863;-71
2024/04/21 00:09:21;;;;;;;;;;;18.00;69.90;;;;;;5364514;26;1799;-71
2024/04/21 00:11:47;;;;;;;;;;;18.00;69.90;;;;;;5379580;26;1865;-71
2024/04/21 00:14:12;;;;;;;;;;;18.00;69.90;;;;;;5397872;26;1609;-71
2024/04/21 00:16:38;;;;;;;;;;;18.00;69.90;;;;;;5392343;26;1765;-70
2024/04/21 00:19:03;;;;;;;;;;;18.00;69.90;;;;;;5377663;26;1843;-71
2024/04/21 00:21:29;;;;;;;;;;;17.90;69.90;;;;;;5392500;26;1606;-74
2024/04/21 00:23:55;;;;;;;;;;;17.90;69.90;;;;;;5393359;26;1457;-72
2024/04/21 00:26:20;;;;;;;;;;;18.00;69.90;;;;;;5398098;26;1918;-72
2024/04/21 00:28:47;;;;;;;;;;;18.00;69.90;;;;;;5392637;26;1411;-74
2024/04/21 00:31:13;;;;;;;;;;;17.90;69.90;;;;;;5397011;26;1370;-74
2024/04/21 00:33:39;;;;;;;;;;;17.90;69.90;;;;;;5392445;26;1442;-74
2024/04/21 00:36:04;;;;;;;;;;;17.90;69.90;;;;;;5394505;26;1666;-75
2024/04/21 00:38:30;;;;;;;;;;;17.90;69.90;;;;;;5396044;26;1782;-74
2024/04/21 00:40:55;;;;;;;;;;;18.00;70.00;;;;;;5359103;26;1469;-73
2024/04/21 00:43:21;;;;;;;;;;;17.90;69.90;;;;;;5394271;26;1749;-71
2024/04/21 00:45:46;;;;;;;;;;;18.00;70.00;;;;;;5393846;26;1830;-71
2024/04/21 00:48:15;;;;;;;;;;;17.90;69.90;;;;;;5396734;26;1632;-70
2024/04/21 00:50:42;;;;;;;;;;;17.90;69.90;;;;;;5375589;26;2073;-71
2024/04/21 00:53:08;;;;;;;;;;;17.90;69.90;;;;;;5363595;26;1614;-71
2024/04/21 00:55:33;;;;;;;;;;;17.90;69.90;;;;;;5420793;26;1744;-71
2024/04/21 00:57:58;;;;;;;;;;;17.90;70.00;;;;;;5356790;26;1782;-72
2024/04/21 01:00:24;;;;;;;;;;;18.00;70.00;;;;;;5379251;26;1637;-72
2024/04/21 01:02:50;;;;;;;;;;;17.90;69.90;;;;;;5366478;26;1944;-73
2024/04/21 01:05:15;;;;;;;;;;;17.90;70.00;;;;;;5388560;26;1869;-73
2024/04/21 01:07:41;;;;;;;;;;;17.90;69.90;;;;;;5395834;26;1473;-74
2024/04/21 01:10:06;;;;;;;;;;;18.00;70.00;;;;;;5362759;26;1982;-74
2024/04/21 01:12:41;;;;;;;;;;;18.00;70.00;;;;;;5391787;26;1506;-73
2024/04/21 01:15:06;;;;;;;;;;;17.90;69.90;;;;;;5416512;26;1857;-73
2024/04/21 01:17:32;;;;;;;;;;;18.00;70.00;;;;;;5396498;26;1243;-73
2024/04/21 01:19:57;;;;;;;;;;;18.00;70.00;;;;;;5361834;26;1511;-73
2024/04/21 01:22:23;;;;;;;;;;;17.90;70.00;;;;;;5379273;26;1883;-72
2024/04/21 01:24:48;;;;;;;;;;;18.00;70.00;;;;;;5393156;26;1818;-73
2024/04/21 01:27:13;;;;;;;;;;;18.00;70.00;;;;;;5398082;26;1604;-73
2024/04/21 01:29:39;;;;;;;;;;;18.00;70.00;;;;;;5395303;26;1817;-74
2024/04/21 01:32:04;;;;;;;;;;;17.90;69.90;;;;;;5395331;26;1313;-72
2024/04/21 01:34:30;;;;;;;;;;;17.90;69.90;;;;;;5393155;26;1447;-71
2024/04/21 01:36:55;;;;;;;;;;;18.00;70.00;;;;;;5396552;26;1448;-70
2024/04/21 01:39:21;;;;;;;;;;;18.00;70.00;;;;;;5397059;26;1107;-71
2024/04/21 01:41:46;;;;;;;;;;;17.90;69.90;;;;;;5366771;26;1118;-70
2024/04/21 01:44:12;;;;;;;;;;;18.00;69.90;;;;;;5392965;26;1508;-72
2024/04/21 01:46:37;;;;;;;;;;;17.90;69.90;;;;;;5394745;26;1856;-73
2024/04/21 01:49:03;;;;;;;;;;;17.90;69.90;;;;;;5395089;26;1769;-73
2024/04/21 01:51:28;;;;;;;;;;;17.90;69.90;;;;;;5401690;26;1891;-72
2024/04/21 01:53:54;;;;;;;;;;;17.90;69.80;;;;;;5395332;26;1407;-73
2024/04/21 01:56:19;;;;;;;;;;;17.90;69.80;;;;;;5398690;26;1871;-73
2024/04/21 01:58:44;;;;;;;;;;;17.90;69.80;;;;;;5393062;26;1672;-73
2024/04/21 02:01:10;;;;;;;;;;;17.90;69.80;;;;;;5390779;26;1897;-73
2024/04/21 02:03:35;;;;;;;;;;;18.00;69.90;;;;;;5402451;26;1513;-73
2024/04/21 02:06:01;;;;;;;;;;;17.90;69.80;;;;;;5398308;26;1821;-73
2024/04/21 02:08:26;;;;;;;;;;;17.90;69.80;;;;;;5429231;26;1533;-73
2024/04/21 02:10:52;;;;;;;;;;;18.00;69.90;;;;;;5365411;26;1535;-72
2024/04/21 02:13:19;;;;;;;;;;;18.00;69.80;;;;;;5396052;26;1853;-73
2024/04/21 02:15:48;;;;;;;;;;;18.00;69.90;;;;;;5398531;26;1640;-71
2024/04/21 02:18:14;;;;;;;;;;;18.00;69.90;;;;;;5404100;26;1386;-74
2024/04/21 02:20:41;;;;;;;;;;;18.00;69.80;;;;;;5399197;26;869;-71
2024/04/21 02:23:07;;;;;;;;;;;18.00;69.80;;;;;;5368573;26;1948;-73
2024/04/21 02:25:32;;;;;;;;;;;18.00;69.80;;;;;;5370106;26;1837;-73
2024/04/21 02:27:57;;;;;;;;;;;18.00;69.80;;;;;;5397954;26;1426;-72
2024/04/21 02:30:23;;;;;;;;;;;18.00;69.80;;;;;;5394116;26;1456;-72
2024/04/21 02:32:48;;;;;;;;;;;18.00;69.80;;;;;;5390720;26;1471;-72
2024/04/21 02:35:14;;;;;;;;;;;18.00;69.70;;;;;;5392210;26;1937;-72
2024/04/21 02:37:39;;;;;;;;;;;18.00;69.70;;;;;;5393478;26;1859;-72
2024/04/21 02:40:05;;;;;;;;;;;18.00;69.70;;;;;;5420171;26;1824;-72
2024/04/21 02:42:30;;;;;;;;;;;18.00;69.70;;;;;;5392328;26;2039;-74
2024/04/21 02:44:56;;;;;;;;;;;18.00;69.70;;;;;;5355220;26;1872;-73
2024/04/21 02:47:22;;;;;;;;;;;18.00;69.70;;;;;;5389259;26;1931;-72
2024/04/21 02:49:47;;;;;;;;;;;18.00;69.70;;;;;;5334476;26;1982;-72
2024/04/21 02:52:13;;;;;;;;;;;18.00;69.70;;;;;;5378496;26;1856;-73
2024/04/21 02:54:38;;;;;;;;;;;18.00;69.70;;;;;;5357499;26;1854;-72
2024/04/21 02:57:04;;;;;;;;;;;18.00;69.60;;;;;;5393974;26;1877;-72
2024/04/21 02:59:30;;;;;;;;;;;18.00;69.60;;;;;;5395893;26;2184;-71
2024/04/21 03:01:55;;;;;;;;;;;18.00;69.60;;;;;;5393408;26;1958;-73
2024/04/21 03:04:21;;;;;;;;;;;18.00;69.60;;;;;;5403099;26;1820;-72
2024/04/21 03:06:47;;;;;;;;;;;18.00;69.60;;;;;;5400711;26;1822;-72
2024/04/21 03:09:12;;;;;;;;;;;18.00;69.60;;;;;;5382259;26;1818;-72
2024/04/21 03:11:38;;;;;;;;;;;18.00;69.60;;;;;;5369862;26;2027;-72
2024/04/21 03:14:03;;;;;;;;;;;18.00;69.60;;;;;;5399773;26;1947;-73
2024/04/21 03:16:28;;;;;;;;;;;18.00;69.60;;;;;;5393276;26;2007;-72
2024/04/21 03:18:54;;;;;;;;;;;18.00;69.60;;;;;;5401479;26;1699;-72
2024/04/21 03:21:19;;;;;;;;;;;18.00;69.60;;;;;;5394738;26;1740;-73
2024/04/21 03:23:46;;;;;;;;;;;18.00;69.60;;;;;;5417466;26;1836;-73
2024/04/21 03:26:12;;;;;;;;;;;18.00;69.60;;;;;;5367828;26;1826;-73
2024/04/21 03:28:37;;;;;;;;;;;18.00;69.60;;;;;;5359295;26;1825;-72
2024/04/21 03:31:03;;;;;;;;;;;18.00;69.60;;;;;;5403798;26;1818;-72
2024/04/21 03:33:28;;;;;;;;;;;18.00;69.60;;;;;;5397757;26;1851;-72
2024/04/21 03:36:02;;;;;;;;;;;18.00;69.50;;;;;;5340445;26;1824;-73
2024/04/21 03:38:27;;;;;;;;;;;18.00;69.60;;;;;;5422090;26;2068;-72
2024/04/21 03:40:53;;;;;;;;;;;18.00;69.60;;;;;;5394243;26;1928;-73
2024/04/21 03:43:19;;;;;;;;;;;18.00;69.50;;;;;;5391507;26;1916;-72
2024/04/21 03:45:44;;;;;;;;;;;18.00;69.50;;;;;;5397415;26;2008;-72
2024/04/21 03:48:10;;;;;;;;;;;18.00;69.50;;;;;;5395631;26;1961;-73
2024/04/21 03:50:35;;;;;;;;;;;18.00;69.50;;;;;;5367537;26;1721;-73
2024/04/21 03:53:01;;;;;;;;;;;18.00;69.50;;;;;;5365825;26;1665;-72
2024/04/21 03:55:26;;;;;;;;;;;18.00;69.50;;;;;;5398358;26;1500;-73
2024/04/21 03:57:51;;;;;;;;;;;18.00;69.50;;;;;;5399263;26;1588;-73
2024/04/21 04:00:17;;;;;;;;;;;18.00;69.50;;;;;;5366316;26;1921;-72
2024/04/21 04:02:42;;;;;;;;;;;18.00;69.50;;;;;;5395114;26;1849;-71
2024/04/21 04:05:08;;;;;;;;;;;18.00;69.50;;;;;;5393278;26;2015;-73
2024/04/21 04:07:33;;;;;;;;;;;18.00;69.50;;;;;;5395254;26;1761;-72
2024/04/21 04:09:59;;;;;;;;;;;18.10;69.60;;;;;;5346945;26;1484;-71
2024/04/21 04:12:24;;;;;;;;;;;18.00;69.50;;;;;;5392172;26;1878;-73
2024/04/21 04:14:51;;;;;;;;;;;18.00;69.50;;;;;;5418298;26;1595;-72
2024/04/21 04:17:16;;;;;;;;;;;18.00;69.40;;;;;;5389933;26;1527;-72
2024/04/21 04:19:42;;;;;;;;;;;18.10;69.50;;;;;;5379449;26;1949;-72
2024/04/21 04:22:07;;;;;;;;;;;18.10;69.40;;;;;;5392702;26;1386;-71
2024/04/21 04:24:33;;;;;;;;;;;18.10;69.30;;;;;;5393544;26;1360;-73
2024/04/21 04:26:58;;;;;;;;;;;18.10;69.20;;;;;;5366750;26;1831;-73
2024/04/21 04:29:24;;;;;;;;;;;18.10;69.10;;;;;;5390784;26;1996;-73
2024/04/21 04:31:49;;;;;;;;;;;18.20;69.10;;;;;;5395239;26;1990;-73
2024/04/21 04:34:15;;;;;;;;;;;18.20;69.00;;;;;;5368752;26;1917;-73
2024/04/21 04:36:40;;;;;;;;;;;18.20;68.90;;;;;;5367377;26;2022;-73
2024/04/21 04:39:08;;;;;;;;;;;18.20;68.80;;;;;;5395612;26;2023;-72
2024/04/21 04:41:33;;;;;;;;;;;18.20;68.80;;;;;;5393735;26;1661;-72
2024/04/21 04:43:59;;;;;;;;;;;18.20;68.70;;;;;;5392268;26;1702;-72
2024/04/21 04:46:24;;;;;;;;;;;18.30;68.80;;;;;;5362277;26;1886;-71
2024/04/21 04:48:50;;;;;;;;;;;18.30;68.70;;;;;;5389549;26;1475;-71
2024/04/21 04:51:15;;;;;;;;;;;18.30;68.60;;;;;;5395739;26;1919;-72
2024/04/21 04:53:41;;;;;;;;;;;18.30;68.50;;;;;;5389376;26;1769;-72
2024/04/21 04:56:06;;;;;;;;;;;18.30;68.50;;;;;;5394302;26;1930;-72
2024/04/21 04:58:31;;;;;;;;;;;18.30;68.40;;;;;;5391705;26;2124;-72
2024/04/21 05:00:57;;;;;;;;;;;18.30;68.40;;;;;;5392985;26;1893;-72
2024/04/21 05:03:22;;;;;;;;;;;18.40;68.40;;;;;;5391005;26;1795;-72
2024/04/21 05:05:48;;;;;;;;;;;18.30;68.30;;;;;;5393171;26;1884;-72
2024/04/21 05:08:13;;;;;;;;;;;18.40;68.40;;;;;;5364847;26;1728;-73
2024/04/21 05:10:39;;;;;;;;;;;18.40;68.30;;;;;;5364581;26;1840;-72
2024/04/21 05:13:05;;;;;;;;;;;18.40;68.20;;;;;;5380744;26;1834;-72
2024/04/21 05:15:30;;;;;;;;;;;18.40;68.20;;;;;;5336868;26;1802;-72
2024/04/21 05:17:56;;;;;;;;;;;18.40;68.20;;;;;;5393724;26;1808;-72
2024/04/21 05:20:22;;;;;;;;;;;18.40;68.20;;;;;;5362639;26;1863;-72
2024/04/21 05:22:47;;;;;;;;;;;18.40;68.10;;;;;;5397339;26;1489;-72
2024/04/21 05:25:13;;;;;;;;;;;18.40;68.10;;;;;;5397398;26;1934;-72
2024/04/21 05:27:38;;;;;;;;;;;18.40;68.10;;;;;;5391758;26;1976;-72
2024/04/21 05:30:04;;;;;;;;;;;18.40;68.10;;;;;;5339847;26;1783;-72
2024/04/21 05:32:29;;;;;;;;;;;18.40;68.10;;;;;;5424163;26;1868;-72
2024/04/21 05:34:55;;;;;;;;;;;18.40;68.00;;;;;;5361967;26;2203;-73
2024/04/21 05:37:20;;;;;;;;;;;18.40;68.00;;;;;;5394214;26;1804;-72
2024/04/21 05:39:46;;;;;;;;;;;18.40;68.00;;;;;;5421949;26;1405;-72
2024/04/21 05:42:11;;;;;;;;;;;18.40;68.00;;;;;;5395399;26;1790;-72
2024/04/21 05:44:37;;;;;;;;;;;18.40;68.00;;;;;;5388101;26;1790;-73
2024/04/21 05:47:02;;;;;;;;;;;18.40;68.00;;;;;;5394712;26;1821;-72
2024/04/21 05:49:29;;;;;;;;;;;18.40;68.00;;;;;;5393812;26;1855;-72
2024/04/21 05:51:54;;;;;;;;;;;18.40;68.00;;;;;;5394220;26;1765;-72
2024/04/21 05:54:20;;;;;;;;;;;18.40;68.00;;;;;;5392237;26;1790;-71
2024/04/21 05:56:45;;;;;;;;;;;18.40;68.00;;;;;;5419391;26;1724;-72
2024/04/21 05:59:11;;;;;;;;;;;18.40;68.00;;;;;;5390299;26;1921;-72
2024/04/21 06:01:36;;;;;;;;;;;18.40;68.00;;;;;;5424376;26;2036;-72
2024/04/21 06:04:02;;;;;;;;;;;18.40;68.10;;;;;;5391844;26;1795;-73
2024/04/21 06:06:27;;;;;;;;;;;18.40;68.00;;;;;;5419682;26;1880;-72
2024/04/21 06:08:54;;;;;;;;;;;18.40;68.00;;;;;;5391571;26;1677;-72
2024/04/21 06:11:19;;;;;;;;;;;18.40;68.10;;;;;;5397162;26;2137;-72
2024/04/21 06:13:45;;;;;;;;;;;18.30;68.10;;;;;;5392571;26;1395;-72
2024/04/21 06:16:10;;;;;;;;;;;18.40;68.10;;;;;;5394622;26;1711;-71
2024/04/21 06:18:36;;;;;;;;;;;18.40;68.10;;;;;;5392497;26;1928;-72
2024/04/21 06:21:01;;;;;;;;;;;18.40;68.10;;;;;;5394925;26;1745;-72
2024/04/21 06:23:26;;;;;;;;;;;18.40;68.20;;;;;;5422958;26;1966;-72
2024/04/21 06:25:52;;;;;;;;;;;18.40;68.20;;;;;;5392269;26;1861;-72
2024/04/21 06:28:17;;;;;;;;;;;18.40;68.20;;;;;;5335539;26;1927;-72
2024/04/21 06:30:43;;;;;;;;;;;18.40;68.20;;;;;;5397377;26;1792;-72
2024/04/21 06:33:08;;;;;;;;;;;18.40;68.20;;;;;;5419838;26;1849;-71
2024/04/21 06:35:34;;;;;;;;;;;18.30;67.80;;;;;;5393216;26;1456;-70
2024/04/21 06:37:59;;;;;;;;;;;18.30;65.70;;;;;;5356484;26;1288;-70
2024/04/21 06:40:25;;;;;;;;;;;18.30;63.90;;;;;;5362203;26;1508;-71
2024/04/21 06:42:50;;;;;;;;;;;18.30;59.90;;;;;;5419396;26;1840;-73
2024/04/21 06:45:16;;;;;;;;;;;18.30;60.50;;;;;;5338966;26;1837;-72
2024/04/21 06:47:41;;;;;;;;;;;18.30;60.30;;;;;;5390055;26;1663;-71
2024/04/21 06:50:07;;;;;;;;;;;18.20;60.30;;;;;;5384367;26;1904;-72
2024/04/21 06:52:32;;;;;;;;;;;18.20;61.30;;;;;;5392270;26;1780;-71
2024/04/21 06:54:58;;;;;;;;;;;18.30;61.40;;;;;;5370561;26;1994;-72
2024/04/21 06:57:23;;;;;;;;;;;18.20;61.30;;;;;;5365747;26;1876;-72
2024/04/21 06:59:49;;;;;;;;;;;18.20;61.80;;;;;;5395422;26;1298;-74
2024/04/21 07:02:14;;;;;;;;;;;18.20;62.30;;;;;;5392701;26;1326;-73
2024/04/21 07:04:40;;;;;;;;;;;18.20;62.70;;;;;;5390016;26;1833;-72
2024/04/21 07:07:05;;;;;;;;;;;18.20;63.00;;;;;;5389683;26;2545;-73
2024/04/21 07:09:32;;;;;;;;;;;18.20;63.40;;;;;;5357938;26;1699;-72
2024/04/21 07:11:57;;;;;;;;;;;18.20;63.60;;;;;;5422270;26;1500;-73
2024/04/21 07:14:23;;;;;;;;;;;18.20;63.90;;;;;;5359201;26;1873;-72
2024/04/21 07:16:48;;;;;;;;;;;18.20;64.10;;;;;;5365447;26;1805;-73
2024/04/21 07:19:14;;;;;;;;;;;18.20;64.40;;;;;;5422257;26;2074;-73
2024/04/21 07:21:39;;;;;;;;;;;18.20;64.60;;;;;;5359311;26;1868;-73
2024/04/21 07:24:05;;;;;;;;;;;18.20;64.70;;;;;;5392007;26;1804;-73
2024/04/21 07:26:30;;;;;;;;;;;18.20;64.90;;;;;;5393665;26;1825;-74
2024/04/21 07:28:56;;;;;;;;;;;18.20;64.90;;;;;;5334957;26;1952;-73
2024/04/21 07:31:21;;;;;;;;;;;18.20;65.10;;;;;;5417393;26;1885;-74
2024/04/21 07:33:47;;;;;;;;;;;18.20;65.20;;;;;;5360173;26;1910;-74
2024/04/21 07:36:12;;;;;;;;;;;18.20;65.30;;;;;;5389549;26;1966;-73
2024/04/21 07:38:37;;;;;;;;;;;18.30;65.50;;;;;;5386332;26;1719;-74
2024/04/21 07:41:03;;;;;;;;;;;18.30;65.50;;;;;;5356560;26;1868;-74
2024/04/21 07:43:28;;;;;;;;;;;18.30;65.50;;;;;;5363485;26;1770;-73
2024/04/21 07:45:54;;;;;;;;;;;18.30;65.60;;;;;;5357751;26;1841;-73
2024/04/21 07:48:19;;;;;;;;;;;18.30;65.60;;;;;;5392981;26;1765;-74
2024/04/21 07:50:45;;;;;;;;;;;18.30;65.70;;;;;;5359358;26;1766;-73
2024/04/21 07:53:10;;;;;;;;;;;18.30;65.70;;;;;;5390459;26;1752;-74
2024/04/21 07:55:36;;;;;;;;;;;18.30;65.70;;;;;;5366437;26;1758;-73
2024/04/21 07:58:01;;;;;;;;;;;18.30;65.80;;;;;;5394813;26;1866;-73
2024/04/21 08:00:27;;;;;;;;;;;18.30;65.80;;;;;;5394296;26;1641;-73
2024/04/21 08:02:53;;;;;;;;;;;18.30;65.80;;;;;;5390387;26;2042;-73
2024/04/21 08:05:18;;;;;;;;;;;18.30;65.80;;;;;;5391757;26;1883;-74
2024/04/21 08:07:44;;;;;;;;;;;18.40;65.90;;;;;;5362695;26;1434;-73
2024/04/21 08:10:09;;;;;;;;;;;18.40;66.00;;;;;;5394645;26;2064;-73
2024/04/21 08:12:34;;;;;;;;;;;18.40;66.00;;;;;;5395938;26;1892;-74
2024/04/21 08:15:05;;;;;;;;;;;18.40;66.00;;;;;;5418918;26;1968;-73
2024/04/21 08:17:31;;;;;;;;;;;18.40;66.10;;;;;;5401012;26;1908;-74
2024/04/21 08:19:56;;;;;;;;;;;18.30;66.00;;;;;;5392773;26;1441;-74
2024/04/21 08:22:22;;;;;;;;;;;18.40;66.10;;;;;;5417380;26;1909;-73
2024/04/21 08:24:47;;;;;;;;;;;18.40;66.10;;;;;;5392872;26;1917;-73
2024/04/21 08:27:13;;;;;;;;;;;18.40;66.10;;;;;;5396948;26;1913;-75
2024/04/21 08:29:38;;;;;;;;;;;18.40;66.10;;;;;;5390380;26;1960;-74
2024/04/21 08:32:04;;;;;;;;;;;18.40;66.10;;;;;;5425654;26;1828;-72
2024/04/21 08:34:29;;;;;;;;;;;18.40;66.10;;;;;;5426677;26;1287;-73
2024/04/21 08:36:55;;;;;;;;;;;18.40;66.10;;;;;;5396326;26;1767;-72
2024/04/21 08:39:20;;;;;;;;;;;18.40;66.10;;;;;;5363338;26;1871;-73
2024/04/21 08:41:46;;;;;;;;;;;18.40;66.10;;;;;;5357233;26;1740;-73
2024/04/21 08:44:11;;;;;;;;;;;18.40;66.10;;;;;;5360767;26;1763;-73
2024/04/21 08:46:37;;;;;;;;;;;18.40;66.10;;;;;;5369403;26;1822;-73
2024/04/21 08:49:03;;;;;;;;;;;18.40;66.10;;;;;;5429841;26;1769;-73
2024/04/21 08:51:28;;;;;;;;;;;18.50;66.20;;;;;;5365039;26;1926;-74
2024/04/21 08:53:54;;;;;;;;;;;18.50;66.20;;;;;;5361771;26;832;-72
2024/04/21 08:56:19;;;;;;;;;;;18.50;66.20;;;;;;5398710;26;1239;-73
2024/04/21 08:58:46;;;;;;;;;;;18.50;66.20;;;;;;5420735;26;1926;-74
2024/04/21 09:01:11;;;;;;;;;;;18.50;66.20;;;;;;5353402;26;1451;-73
2024/04/21 09:03:37;;;;;;;;;;;18.50;66.20;;;;;;5374628;26;1716;-75
2024/04/21 09:06:02;;;;;;;;;;;18.50;66.20;;;;;;5417736;26;1869;-73
2024/04/21 09:08:28;;;;;;;;;;;18.40;66.10;;;;;;5397125;26;1663;-73
2024/04/21 09:10:55;;;;;;;;;;;18.50;66.20;;;;;;5393230;26;1769;-73
2024/04/21 09:13:20;;;;;;;;;;;18.50;66.20;;;;;;5396221;26;1499;-72
2024/04/21 09:15:45;;;;;;;;;;;18.50;66.20;;;;;;5393144;26;1164;-73
2024/04/21 09:18:11;;;;;;;;;;;18.50;66.20;;;;;;5421391;26;1436;-74
2024/04/21 09:20:36;;;;;;;;;;;18.50;66.30;;;;;;5396400;26;1891;-73
2024/04/21 09:23:02;;;;;;;;;;;18.50;66.30;;;;;;5392631;26;1891;-72
2024/04/21 09:25:27;;;;;;;;;;;18.50;66.30;;;;;;5394985;26;1864;-73
2024/04/21 09:27:53;;;;;;;;;;;18.40;66.30;;;;;;5365472;26;1259;-74
2024/04/21 09:30:18;;;;;;;;;;;18.50;66.40;;;;;;5352840;26;1548;-73
2024/04/21 09:32:44;;;;;;;;;;;18.40;66.30;;;;;;5381020;26;1396;-73
2024/04/21 09:35:10;;;;;;;;;;;18.50;66.40;;;;;;5393044;26;1349;-72
2024/04/21 09:37:40;;;;;;;;;;;18.40;66.40;;;;;;5397208;26;1501;-73
2024/04/21 09:40:06;;;;;;;;;;;18.40;66.40;;;;;;5393144;26;1795;-74
2024/04/21 09:42:31;;;;;;;;;;;18.40;66.40;;;;;;5358084;26;4673;-72
2024/04/21 09:44:57;;;;;;;;;;;18.40;66.50;;;;;;5420200;26;3891;-73
2024/04/21 09:47:22;;;;;;;;;;;18.40;66.50;;;;;;5427441;26;1844;-73
2024/04/21 09:49:47;;;;;;;;;;;18.40;66.50;;;;;;5363532;26;1455;-75
2024/04/21 09:52:14;;;;;;;;;;;18.40;66.50;;;;;;5420026;26;1176;-73
2024/04/21 09:54:40;;;;;;;;;;;18.40;66.50;;;;;;5370208;26;1539;-73
2024/04/21 09:57:09;;;;;;;;;;;18.40;66.60;;;;;;5363464;26;1759;-73
2024/04/21 09:59:35;;;;;;;;;;;18.40;66.60;;;;;;5343568;26;1587;-73
2024/04/21 10:02:00;;;;;;;;;;;18.40;66.60;;;;;;5364223;26;1792;-74
2024/04/21 10:04:28;;;;;;;;;;;18.40;66.60;;;;;;5430528;26;1569;-73
2024/04/21 10:06:53;;;;;;;;;;;18.40;66.60;;;;;;5397210;26;1849;-73
2024/04/21 10:09:19;;;;;;;;;;;18.40;66.60;;;;;;5397278;26;1629;-73
2024/04/21 10:11:44;;;;;;;;;;;18.40;66.70;;;;;;5384976;26;2002;-74
2024/04/21 10:14:10;;;;;;;;;;;18.40;66.70;;;;;;5395569;26;2150;-73
2024/04/21 10:16:39;;;;;;;;;;;18.40;66.70;;;;;;5360032;26;2514;-72
2024/04/21 10:19:05;;;;;;;;;;;18.40;66.70;;;;;;5377155;26;1842;-72
2024/04/21 10:21:30;;;;;;;;;;;18.40;66.70;;;;;;5395351;26;1535;-72
2024/04/21 10:23:56;;;;;;;;;;;18.40;66.70;;;;;;5367057;26;1783;-72
2024/04/21 10:26:21;;;;;;;;;;;18.40;66.70;;;;;;5375240;26;1946;-72
2024/04/21 10:28:47;;;;;;;;;;;18.40;66.80;;;;;;5399764;26;1815;-72
2024/04/21 10:31:12;;;;;;;;;;;18.40;66.80;;;;;;5362250;26;985;-74
2024/04/21 10:33:39;;;;;;;;;;;18.40;66.80;;;;;;5369546;26;1638;-72
2024/04/21 10:36:04;;;;;;;;;;;18.40;66.80;;;;;;5336052;26;1712;-73
2024/04/21 10:38:30;;;;;;;;;;;18.40;66.80;;;;;;5421628;26;2022;-71
2024/04/21 10:40:55;;;;;;;;;;;18.40;66.80;;;;;;5362747;26;1856;-73
2024/04/21 10:43:24;;;;;;;;;;;18.40;66.90;;;;;;5358436;26;1632;-72
2024/04/21 10:45:57;;;;;;;;;;;18.30;66.80;;;;;;5368778;26;1980;-72
2024/04/21 10:48:23;;;;;;;;;;;18.40;66.90;;;;;;5358538;26;1502;-72
2024/04/21 10:50:48;;;;;;;;;;;18.40;66.90;;;;;;5364031;26;1398;-73
2024/04/21 10:53:14;;;;;;;;;;;18.40;66.90;;;;;;5396421;26;1813;-72
2024/04/21 10:55:40;;;;;;;;;;;18.40;67.00;;;;;;5386407;26;2017;-72
2024/04/21 10:58:06;;;;;;;;;;;18.40;67.00;;;;;;5392285;26;1858;-72
2024/04/21 11:00:33;;;;;;;;;;;18.30;66.90;;;;;;5395427;26;2464;-72
2024/04/21 11:02:58;;;;;;;;;;;18.40;67.00;;;;;;5422906;26;1845;-72
2024/04/21 11:05:28;;;;;;;;;;;18.40;67.00;;;;;;5394764;26;1872;-72
2024/04/21 11:07:53;;;;;;;;;;;18.30;67.00;;;;;;5364634;26;1373;-73
2024/04/21 11:10:19;;;;;;;;;;;18.30;67.00;;;;;;5424641;26;2029;-72
2024/04/21 11:12:47;;;;;;;;;;;18.30;67.00;;;;;;5363000;26;1419;-72
2024/04/21 11:15:13;;;;;;;;;;;18.30;67.10;;;;;;5391903;26;1777;-72
2024/04/21 11:17:38;;;;;;;;;;;18.30;67.10;;;;;;5367350;26;1879;-73
2024/04/21 11:20:04;;;;;;;;;;;18.30;67.10;;;;;;5379106;26;1935;-71
2024/04/21 11:22:30;;;;;;;;;;;18.30;67.10;;;;;;5401226;26;1404;-71
2024/04/21 11:24:55;;;;;;;;;;;18.30;67.20;;;;;;5380083;26;1837;-72
2024/04/21 11:27:21;;;;;;;;;;;18.30;67.20;;;;;;5392435;26;1952;-72
2024/04/21 11:29:47;;;;;;;;;;;18.30;67.20;;;;;;5381473;26;1848;-72
2024/04/21 11:32:12;;;;;;;;;;;18.30;67.20;;;;;;5397226;26;1648;-72
2024/04/21 11:34:38;;;;;;;;;;;18.30;67.30;;;;;;5394263;26;1762;-72
2024/04/21 11:37:04;;;;;;;;;;;18.30;67.30;;;;;;5365808;26;1458;-72
2024/04/21 11:39:29;;;;;;;;;;;18.30;67.30;;;;;;5398514;26;1837;-72
2024/04/21 11:41:54;;;;;;;;;;;18.30;67.40;;;;;;5422694;26;1974;-72
2024/04/21 11:44:20;;;;;;;;;;;18.30;67.40;;;;;;5364296;26;1896;-72
2024/04/21 11:46:48;;;;;;;;;;;18.30;67.40;;;;;;5396909;26;1869;-72
2024/04/21 11:49:14;;;;;;;;;;;18.30;67.50;;;;;;5361811;26;1745;-72
2024/04/21 11:51:39;;;;;;;;;;;18.30;67.50;;;;;;5367360;26;1450;-72
2024/04/21 11:54:05;;;;;;;;;;;18.30;67.50;;;;;;5365027;26;1236;-72
2024/04/21 11:56:30;;;;;;;;;;;18.20;67.40;;;;;;5423759;26;1694;-72
2024/04/21 11:58:56;;;;;;;;;;;18.20;67.50;;;;;;5391563;26;1794;-72
2024/04/21 12:01:21;;;;;;;;;;;18.30;67.50;;;;;;5400134;26;1295;-72
2024/04/21 12:03:47;;;;;;;;;;;18.20;67.50;;;;;;5365599;26;1738;-72
2024/04/21 12:06:13;;;;;;;;;;;18.20;67.50;;;;;;5367411;26;1833;-72
2024/04/21 12:08:39;;;;;;;;;;;18.20;67.50;;;;;;5365343;26;1786;-71
2024/04/21 12:11:04;;;;;;;;;;;18.20;67.50;;;;;;5394579;26;2024;-72
2024/04/21 12:13:29;;;;;;;;;;;18.20;67.50;;;;;;5396611;26;1383;-72
2024/04/21 12:15:55;;;;;;;;;;;18.20;67.50;;;;;;5386854;26;1312;-72
2024/04/21 12:18:20;;;;;;;;;;;18.20;67.50;;;;;;5393347;26;1865;-72
2024/04/21 12:20:46;;;;;;;;;;;18.20;68.30;;;;;;5390999;26;1776;-72
2024/04/21 12:23:11;;;;;;;;;;;18.20;67.60;;;;;;5342164;26;1597;-72
2024/04/21 12:25:37;;;;;;;;;;;18.20;67.60;;;;;;5404102;26;1874;-72
2024/04/21 12:28:03;;;;;;;;;;;18.20;67.60;;;;;;5366754;26;1185;-72
2024/04/21 12:30:28;;;;;;;;;;;18.20;67.60;;;;;;5418560;26;1866;-71
2024/04/21 12:32:54;;;;;;;;;;;18.20;67.60;;;;;;5419436;26;908;-71
2024/04/21 12:35:19;;;;;;;;;;;18.20;67.70;;;;;;5418819;26;2425;-72
2024/04/21 12:37:45;;;;;;;;;;;18.20;67.70;;;;;;5401133;26;2658;-72
2024/04/21 12:40:10;;;;;;;;;;;18.20;67.70;;;;;;5396752;26;1661;-71
2024/04/21 12:42:37;;;;;;;;;;;18.20;67.80;;;;;;5395746;26;2206;-72
2024/04/21 12:45:04;;;;;;;;;;;18.20;67.80;;;;;;5360350;26;1822;-72
2024/04/21 12:47:31;;;;;;;;;;;18.20;67.80;;;;;;5398423;26;1710;-71
2024/04/21 12:49:57;;;;;;;;;;;18.20;67.80;;;;;;5392510;26;1996;-71
2024/04/21 12:52:22;;;;;;;;;;;18.20;67.10;;;;;;5363890;26;1689;-72
2024/04/21 12:54:48;;;;;;;;;;;18.20;68.70;;;;;;5394461;26;1761;-72
2024/04/21 12:57:13;;;;;;;;;;;18.20;67.70;;;;;;5402113;26;1882;-70
2024/04/21 12:59:39;;;;;;;;;;;18.20;64.50;;;;;;5394314;26;2112;-69
2024/04/21 13:02:05;;;;;;;;;;;18.20;63.60;;;;;;5363337;26;1047;-70
2024/04/21 13:04:31;;;;;;;;;;;18.20;63.40;;;;;;5393100;26;1410;-71
2024/04/21 13:06:56;;;;;;;;;;;18.20;60.90;;;;;;5361511;26;1830;-71
2024/04/21 13:09:22;;;;;;;;;;;18.20;57.20;;;;;;5392823;26;1591;-71
2024/04/21 13:11:47;;;;;;;;;;;18.20;52.90;;;;;;5399374;26;1396;-71
2024/04/21 13:14:13;;;;;;;;;;;18.30;57.40;;;;;;5391974;26;1579;-70
2024/04/21 13:16:38;;;;;;;;;;;18.20;55.00;;;;;;5395113;26;2049;-70
2024/04/21 13:19:07;;;;;;;;;;;18.20;55.20;;;;;;5400240;26;1674;-73
2024/04/21 13:21:36;;;;;;;;;;;18.20;55.40;;;;;;5394274;26;1762;-72
2024/04/21 13:24:01;;;;;;;;;;;18.20;55.90;;;;;;5363874;26;1658;-73
2024/04/21 13:26:27;;;;;;;;;;;18.30;56.30;;;;;;5392290;26;1829;-75
2024/04/21 13:28:52;;;;;;;;;;;18.30;56.60;;;;;;5397280;26;1874;-74
2024/04/21 13:31:18;;;;;;;;;;;18.30;57.10;;;;;;5400450;26;1644;-71
2024/04/21 13:33:43;;;;;;;;;;;18.30;57.60;;;;;;5424190;26;1449;-71
2024/04/21 13:36:09;;;;;;;;;;;18.30;58.00;;;;;;5332766;26;1484;-70
2024/04/21 13:38:34;;;;;;;;;;;18.40;58.40;;;;;;5346256;26;1853;-72
2024/04/21 13:41:01;;;;;;;;;;;18.40;58.80;;;;;;5395250;26;1734;-70
2024/04/21 13:43:27;;;;;;;;;;;18.40;59.00;;;;;;5362743;26;1876;-72
2024/04/21 13:45:52;;;;;;;;;;;18.40;59.20;;;;;;5362323;26;1863;-71
2024/04/21 13:48:18;;;;;;;;;;;18.40;59.50;;;;;;5335376;26;2656;-72
2024/04/21 13:50:43;;;;;;;;;;;18.40;59.70;;;;;;5391061;26;1435;-72
2024/04/21 13:53:09;;;;;;;;;;;18.40;60.60;;;;;;5396256;26;1386;-71
2024/04/21 13:55:34;;;;;;;;;;;18.40;60.10;;;;;;5363371;26;1887;-72
2024/04/21 13:58:00;;;;;;;;;;;18.50;60.40;;;;;;5388653;26;1742;-72
2024/04/21 14:00:25;;;;;;;;;;;18.50;60.60;;;;;;5393202;26;1839;-71
2024/04/21 14:02:50;;;;;;;;;;;18.50;60.80;;;;;;5392452;26;1733;-72
2024/04/21 14:05:16;;;;;;;;;;;18.50;60.90;;;;;;5401039;26;1856;-71
2024/04/21 14:07:42;;;;;;;;;;;18.50;61.10;;;;;;5398112;26;1885;-70
2024/04/21 14:10:07;;;;;;;;;;;18.50;62.00;;;;;;5394701;26;1767;-69
2024/04/21 14:12:33;;;;;;;;;;;18.50;61.30;;;;;;5395030;26;1729;-70
2024/04/21 14:14:58;;;;;;;;;;;18.50;61.40;;;;;;5393448;26;1543;-69
2024/04/21 14:17:26;;;;;;;;;;;18.50;61.50;;;;;;5389708;26;1726;-69
2024/04/21 14:19:51;;;;;;;;;;;18.50;61.60;;;;;;5370141;26;1783;-69
2024/04/21 14:22:17;;;;;;;;;;;18.50;61.70;;;;;;5394055;26;1859;-69